Archival Weather

Chicago O'Hare International

Chicago, Illinois (KORD)

Report from: Wednesday, December 14, 2022 8:19 AM CST
Current time: Friday, June 21, 2024 7:18 PM CDT

Current weather – Weather history – Daily summaries
Weather forecast

Present weatherMist
Temperature3.9°C (39.0°F)
Wind chill-1.0°C (30.2°F)
Dew point2.2°C (36.0°F)
Winds 14 kts (7.2 m/s, 16.1 mph) East-Southeast (120°)
Visibility4 mi. (6.4 km)
Clouds Ceiling: Overcast 600 ft. (183 m)
Altimeter29.83 in.Hg (1010 mB)
Precipitiation0.01 in. (0 mm)
Precip. events Rain ended 2:18 PM
Relative humidity89 %
Density altitude-1,133 ft. (-345 m)
Remarks Automated weather observing station with precipitation discriminator
Flight conditions Instrument Meteorological Conditions
Raw dataKORD 141419Z 12014KT 4SM BR OVC006 04/02 A2983 RMK AO2 RAE18 P0001 T00390022
An error has occurred. This application may no longer respond until reloaded. Reload 🗙